createdAt,value
2023-04-27T00:00:20.816Z,73.17
2023-04-27T00:01:23.167Z,73.07
2023-04-27T00:02:25.554Z,73.14
2023-04-27T00:03:28.135Z,73.29
2023-04-27T00:04:30.947Z,73.42
2023-04-27T00:05:35.705Z,73.57
2023-04-27T00:06:38.068Z,73.61
2023-04-27T00:07:40.582Z,73.53
2023-04-27T00:08:42.933Z,73.53
2023-04-27T00:09:45.359Z,73.54
2023-04-27T00:10:47.796Z,73.52
2023-04-27T00:11:50.009Z,73.55
2023-04-27T00:12:52.191Z,73.57
2023-04-27T00:13:54.405Z,73.62
2023-04-27T00:14:57.451Z,73.53
2023-04-27T00:16:00.802Z,73.26
2023-04-27T00:17:03.287Z,73.30
2023-04-27T00:18:06.032Z,73.31
2023-04-27T00:19:08.523Z,73.33
2023-04-27T00:20:12.743Z,73.33
2023-04-27T00:21:15.113Z,73.36
2023-04-27T00:22:18.096Z,73.45
2023-04-27T00:23:21.445Z,73.53
2023-04-27T00:24:23.458Z,73.60
2023-04-27T00:25:25.993Z,73.60
2023-04-27T00:26:28.503Z,73.56
2023-04-27T00:27:31.147Z,73.60
2023-04-27T00:28:33.403Z,73.51
2023-04-27T00:29:35.450Z,73.43
2023-04-27T00:30:38.071Z,73.31
2023-04-27T00:31:42.148Z,73.38
2023-04-27T00:32:44.870Z,73.46
2023-04-27T00:33:47.488Z,73.46
2023-04-27T00:34:51.528Z,73.42
2023-04-27T00:35:53.850Z,73.36
2023-04-27T00:36:58.781Z,73.29
2023-04-27T00:38:01.057Z,73.14
2023-04-27T00:39:04.578Z,73.09
2023-04-27T00:40:10.828Z,72.92
2023-04-27T00:41:13.129Z,72.83
2023-04-27T00:42:15.137Z,72.64
2023-04-27T00:43:17.222Z,72.62
2023-04-27T00:45:36.968Z,72.42
2023-04-27T00:46:39.403Z,72.54
2023-04-27T00:47:42.063Z,72.60
2023-04-27T00:48:44.620Z,72.59
2023-04-27T00:49:46.871Z,72.50
2023-04-27T00:50:49.379Z,72.59
2023-04-27T00:51:51.419Z,72.64
2023-04-27T00:52:53.646Z,72.70
2023-04-27T00:53:59.906Z,72.69
2023-04-27T00:55:04.680Z,72.58
2023-04-27T00:56:07.731Z,72.59
2023-04-27T00:57:09.882Z,72.64
2023-04-27T00:58:11.956Z,72.67
2023-04-27T00:59:14.366Z,72.64
2023-04-27T01:00:17.899Z,72.68
2023-04-27T01:01:20.030Z,72.53
2023-04-27T01:02:22.355Z,72.67
2023-04-27T01:03:25.001Z,72.81
2023-04-27T01:04:28.335Z,72.82
2023-04-27T01:05:32.577Z,72.69
2023-04-27T01:06:35.358Z,72.86
2023-04-27T01:07:38.615Z,72.92
2023-04-27T01:08:40.861Z,72.86
2023-04-27T01:09:42.889Z,72.82
2023-04-27T01:10:45.349Z,72.66
2023-04-27T01:11:48.141Z,72.49
2023-04-27T01:12:50.364Z,72.63
2023-04-27T01:16:29.111Z,72.76
2023-04-27T01:17:32.255Z,72.77
2023-04-27T01:18:34.921Z,72.65
2023-04-27T01:19:37.136Z,72.54
2023-04-27T01:20:39.808Z,72.38
2023-04-27T01:21:43.911Z,72.35
2023-04-27T01:22:46.038Z,72.37
2023-04-27T01:23:48.334Z,72.35
2023-04-27T01:24:50.461Z,72.43
2023-04-27T01:25:52.363Z,72.37
2023-04-27T01:26:57.375Z,72.48
2023-04-27T01:27:59.582Z,72.63
2023-04-27T01:29:01.630Z,72.67
2023-04-27T01:30:06.845Z,72.78
2023-04-27T01:31:10.028Z,72.95
2023-04-27T01:32:12.404Z,73.07
2023-04-27T01:33:14.632Z,73.20
2023-04-27T01:34:16.931Z,73.24
2023-04-27T01:35:20.803Z,73.23
2023-04-27T01:36:23.390Z,73.12
2023-04-27T01:37:26.393Z,73.12
2023-04-27T01:38:28.659Z,73.20
2023-04-27T01:39:31.619Z,73.21
2023-04-27T01:40:34.206Z,73.20
2023-04-27T01:41:36.987Z,73.21
2023-04-27T01:42:39.175Z,73.18
2023-04-27T01:43:43.214Z,73.17
2023-04-27T01:44:46.089Z,73.28
2023-04-27T01:45:48.358Z,73.27
2023-04-27T01:46:50.930Z,73.24
2023-04-27T01:47:53.188Z,73.11
2023-04-27T01:48:55.832Z,73.02
2023-04-27T01:49:58.318Z,73.15
2023-04-27T01:51:00.799Z,73.22
2023-04-27T01:52:04.308Z,73.22
2023-04-27T01:53:08.286Z,73.32
2023-04-27T01:54:10.266Z,73.38
2023-04-27T01:55:12.349Z,73.37
2023-04-27T01:56:16.363Z,73.43
2023-04-27T01:57:18.448Z,73.44
2023-04-27T01:58:20.787Z,73.34
2023-04-27T01:59:23.777Z,73.28
2023-04-27T02:00:28.188Z,73.29
2023-04-27T02:01:30.394Z,73.24
2023-04-27T02:02:33.191Z,73.20
2023-04-27T02:03:36.650Z,73.26
2023-04-27T02:04:40.843Z,73.27
2023-04-27T02:05:43.349Z,73.24
2023-04-27T02:06:46.432Z,73.28
2023-04-27T02:07:49.582Z,73.26
2023-04-27T02:08:51.785Z,73.24
2023-04-27T02:09:54.121Z,73.37
2023-04-27T02:10:56.886Z,73.37
2023-04-27T02:11:59.133Z,73.39
2023-04-27T02:13:01.418Z,73.50
2023-04-27T02:14:03.699Z,73.54
2023-04-27T02:15:10.105Z,73.61
2023-04-27T02:16:14.787Z,73.70
2023-04-27T02:17:16.853Z,73.64
2023-04-27T02:18:18.986Z,73.71
2023-04-27T02:19:23.039Z,73.77
2023-04-27T02:20:26.581Z,73.75
2023-04-27T02:21:28.779Z,73.65
2023-04-27T02:22:35.217Z,73.50
2023-04-27T02:23:37.238Z,73.52
2023-04-27T02:24:39.515Z,73.73
2023-04-27T02:25:41.732Z,73.84
2023-04-27T02:26:45.100Z,73.72
2023-04-27T02:27:47.290Z,73.78
2023-04-27T02:28:52.064Z,73.92
2023-04-27T02:29:56.671Z,74.05
2023-04-27T02:30:59.741Z,74.13
2023-04-27T02:32:01.958Z,74.23
2023-04-27T02:33:05.266Z,74.12
2023-04-27T02:34:07.753Z,74.19
2023-04-27T02:35:09.790Z,74.24
2023-04-27T02:36:12.616Z,74.37
2023-04-27T02:37:14.819Z,74.51
2023-04-27T02:38:16.826Z,74.55
2023-04-27T02:39:18.940Z,74.53
2023-04-27T02:44:56.435Z,74.32
2023-04-27T02:46:03.803Z,74.21
2023-04-27T02:47:06.377Z,74.25
2023-04-27T02:48:08.566Z,74.41
2023-04-27T02:49:12.489Z,74.45
2023-04-27T02:50:15.568Z,74.56
2023-04-27T02:51:18.277Z,74.57
2023-04-27T02:52:20.683Z,74.59
2023-04-27T02:53:22.879Z,74.65
2023-04-27T02:54:25.131Z,74.65
2023-04-27T02:55:27.194Z,74.70
2023-04-27T02:56:30.341Z,74.77
2023-04-27T02:57:32.461Z,74.80
2023-04-27T02:58:34.819Z,74.78
2023-04-27T02:59:36.895Z,74.71
2023-04-27T03:00:39.561Z,74.66
2023-04-27T03:01:43.179Z,74.67
2023-04-27T03:02:45.639Z,74.65
2023-04-27T03:03:48.601Z,74.67
2023-04-27T03:04:53.963Z,74.63
2023-04-27T03:05:56.205Z,74.63
2023-04-27T03:06:59.290Z,74.64
2023-04-27T03:08:01.603Z,74.57
2023-04-27T03:11:39.144Z,74.65
2023-04-27T03:12:42.843Z,74.57
2023-04-27T03:13:45.236Z,74.62
2023-04-27T03:14:47.396Z,74.58
2023-04-27T03:15:49.572Z,74.58
2023-04-27T03:16:52.138Z,74.55
2023-04-27T03:17:57.232Z,74.57
2023-04-27T03:18:59.881Z,74.71
2023-04-27T03:20:05.916Z,74.81
2023-04-27T03:21:12.179Z,74.87
2023-04-27T03:22:14.877Z,74.88
2023-04-27T03:23:18.745Z,74.85
2023-04-27T03:24:21.008Z,74.92
2023-04-27T03:25:24.988Z,74.98
2023-04-27T03:26:27.706Z,74.99
2023-04-27T03:27:30.072Z,74.89
2023-04-27T03:28:32.924Z,74.86
2023-04-27T03:29:35.203Z,74.91
2023-04-27T03:30:39.629Z,74.96
2023-04-27T03:31:42.011Z,74.95
2023-04-27T03:32:47.153Z,75.00
2023-04-27T03:33:49.711Z,75.12
2023-04-27T03:34:51.998Z,75.16
2023-04-27T03:35:56.331Z,75.11
2023-04-27T03:36:58.640Z,75.08
2023-04-27T03:38:00.887Z,74.97
2023-04-27T03:39:03.596Z,74.99
2023-04-27T03:40:11.893Z,74.97
2023-04-27T03:41:14.248Z,74.91
2023-04-27T03:42:17.422Z,74.68
2023-04-27T03:43:19.994Z,74.65
2023-04-27T03:44:23.237Z,74.70
2023-04-27T03:45:25.740Z,74.71
2023-04-27T03:46:28.279Z,74.62
2023-04-27T03:47:30.990Z,74.63
2023-04-27T03:48:33.599Z,74.56
2023-04-27T03:49:37.287Z,74.47
2023-04-27T03:50:41.213Z,74.58
2023-04-27T03:51:43.250Z,74.59
2023-04-27T03:52:45.534Z,74.55
2023-04-27T03:53:47.843Z,74.40
2023-04-27T03:57:25.554Z,74.60
2023-04-27T03:58:29.701Z,74.64
2023-04-27T03:59:45.979Z,74.48
2023-04-27T04:00:49.348Z,74.40
2023-04-27T04:01:51.979Z,74.22
2023-04-27T04:02:57.578Z,74.18
2023-04-27T04:04:00.500Z,74.18
2023-04-27T04:05:03.621Z,74.07
2023-04-27T04:06:08.337Z,74.06
2023-04-27T04:07:10.774Z,73.97
2023-04-27T04:08:13.688Z,73.83
2023-04-27T04:09:16.084Z,73.77
2023-04-27T04:10:21.503Z,73.67
2023-04-27T04:11:24.837Z,73.53
2023-04-27T04:12:29.893Z,73.45
2023-04-27T04:13:32.125Z,73.41
2023-04-27T04:14:36.282Z,73.50
2023-04-27T04:15:38.374Z,73.53
2023-04-27T04:16:42.539Z,73.49
2023-04-27T04:17:45.846Z,73.44
2023-04-27T04:18:48.807Z,73.49
2023-04-27T04:19:52.877Z,73.44
2023-04-27T04:20:55.687Z,73.38
2023-04-27T04:21:58.745Z,73.36
2023-04-27T04:23:00.924Z,73.41
2023-04-27T04:24:06.787Z,73.34
2023-04-27T04:25:10.376Z,73.31
2023-04-27T04:26:13.334Z,73.22
2023-04-27T04:27:16.139Z,73.32
2023-04-27T04:28:18.540Z,73.35
2023-04-27T04:29:22.568Z,73.31
2023-04-27T04:30:25.173Z,73.12
2023-04-27T04:31:27.854Z,72.88
2023-04-27T04:32:31.843Z,73.00
2023-04-27T04:33:34.168Z,72.99
2023-04-27T04:34:36.448Z,72.99
2023-04-27T04:35:39.853Z,72.87
2023-04-27T04:36:42.150Z,73.01
2023-04-27T04:37:45.765Z,72.95
2023-04-27T04:38:48.507Z,72.72
2023-04-27T04:39:51.420Z,72.58
2023-04-27T04:40:53.995Z,72.54
2023-04-27T04:41:55.945Z,72.60
2023-04-27T04:43:01.523Z,72.73
2023-04-27T04:44:05.045Z,72.92
2023-04-27T04:45:10.381Z,72.90
2023-04-27T04:46:13.717Z,72.69
2023-04-27T04:47:16.115Z,72.63
2023-04-27T04:48:18.997Z,72.60
2023-04-27T04:49:21.891Z,72.60
2023-04-27T04:50:25.566Z,72.64
2023-04-27T04:51:27.985Z,72.78
2023-04-27T04:52:30.310Z,72.66
2023-04-27T04:53:33.346Z,72.54
2023-04-27T04:54:35.558Z,72.34
2023-04-27T04:55:37.702Z,72.28
2023-04-27T04:56:40.599Z,72.16
2023-04-27T04:57:43.379Z,72.05
2023-04-27T04:58:46.319Z,71.76
2023-04-27T04:59:48.667Z,71.75
2023-04-27T05:00:51.330Z,71.74
2023-04-27T05:01:53.667Z,71.72
2023-04-27T05:02:56.126Z,71.76
2023-04-27T05:04:01.435Z,71.81
2023-04-27T05:05:07.211Z,71.79
2023-04-27T05:06:10.035Z,71.56
2023-04-27T05:07:14.743Z,71.35
2023-04-27T05:08:16.385Z,71.39
2023-04-27T05:09:21.684Z,71.50
2023-04-27T05:10:24.011Z,71.56
2023-04-27T05:11:26.075Z,71.58
2023-04-27T05:12:28.365Z,71.55
2023-04-27T05:13:30.436Z,71.37
2023-04-27T05:14:33.348Z,71.31
2023-04-27T05:15:37.069Z,71.44
2023-04-27T05:16:39.913Z,71.57
2023-04-27T05:17:42.701Z,71.37
2023-04-27T05:18:45.113Z,71.41
2023-04-27T05:19:48.149Z,71.38
2023-04-27T05:20:51.502Z,71.47
2023-04-27T05:21:54.693Z,71.48
2023-04-27T05:22:56.956Z,71.49
2023-04-27T05:23:59.119Z,71.60
2023-04-27T05:25:02.853Z,71.74
2023-04-27T05:27:21.780Z,71.95
2023-04-27T05:28:24.157Z,72.09
2023-04-27T05:29:26.417Z,72.17
2023-04-27T05:30:30.969Z,72.20
2023-04-27T05:31:33.171Z,72.25
2023-04-27T05:32:39.062Z,72.37
2023-04-27T05:33:41.351Z,72.33
2023-04-27T05:34:43.724Z,72.32
2023-04-27T05:35:47.225Z,72.38
2023-04-27T05:36:49.899Z,72.37
2023-04-27T05:37:52.356Z,72.44
2023-04-27T05:38:56.423Z,72.41
2023-04-27T05:39:58.583Z,72.42
2023-04-27T05:41:02.881Z,72.38
2023-04-27T05:42:06.450Z,72.20
2023-04-27T05:43:08.753Z,72.08
2023-04-27T05:44:10.925Z,71.88
2023-04-27T05:45:13.314Z,71.68
2023-04-27T05:46:17.542Z,71.42
2023-04-27T05:47:20.008Z,71.29
2023-04-27T05:48:22.075Z,70.98
2023-04-27T05:49:24.299Z,71.17
2023-04-27T05:50:27.646Z,70.95
2023-04-27T05:51:30.542Z,71.08
2023-04-27T05:52:33.317Z,71.38
2023-04-27T05:53:35.492Z,71.29
2023-04-27T05:54:37.791Z,71.12
2023-04-27T05:55:39.950Z,71.13
2023-04-27T05:56:43.510Z,71.17
2023-04-27T05:57:47.669Z,71.00
2023-04-27T05:58:49.946Z,70.94
2023-04-27T05:59:52.052Z,70.98
2023-04-27T06:00:54.734Z,70.78
2023-04-27T06:01:59.347Z,70.80
2023-04-27T06:03:01.814Z,70.58
2023-04-27T06:04:05.787Z,70.50
2023-04-27T06:05:09.600Z,70.64
2023-04-27T06:06:14.280Z,70.48
2023-04-27T06:07:17.170Z,70.37
2023-04-27T06:08:19.375Z,70.27
2023-04-27T06:09:21.754Z,70.22
2023-04-27T06:10:24.711Z,70.19
2023-04-27T06:11:27.197Z,69.92
2023-04-27T06:12:30.182Z,70.00
2023-04-27T06:13:32.600Z,70.01
2023-04-27T06:14:35.561Z,70.02
2023-04-27T06:15:37.896Z,69.78
2023-04-27T06:16:40.554Z,69.67
2023-04-27T06:17:44.145Z,69.78
2023-04-27T06:18:50.074Z,69.75
2023-04-27T06:19:52.341Z,69.70
2023-04-27T06:21:07.715Z,69.92
2023-04-27T06:22:22.900Z,69.85
2023-04-27T06:29:08.360Z,69.47
2023-04-27T06:30:33.576Z,69.46
2023-04-27T06:31:51.291Z,69.45
2023-04-27T06:34:21.486Z,69.74
2023-04-27T06:35:46.517Z,69.56
2023-04-27T06:54:28.497Z,69.65
2023-04-27T06:55:32.244Z,69.63
2023-04-27T06:57:15.040Z,68.14
2023-04-27T06:58:17.371Z,67.85
2023-04-27T06:59:20.311Z,67.90
2023-04-27T07:00:23.190Z,67.77
2023-04-27T07:01:25.672Z,67.86
2023-04-27T07:02:30.782Z,68.12
2023-04-27T07:03:35.239Z,68.24
2023-04-27T07:04:37.962Z,68.26
2023-04-27T07:05:41.180Z,68.42
2023-04-27T07:06:43.749Z,68.52
2023-04-27T07:07:45.963Z,68.43
2023-04-27T07:08:48.096Z,68.39
2023-04-27T07:09:50.287Z,68.31
2023-04-27T07:10:52.810Z,68.34
2023-04-27T07:11:56.741Z,68.30
2023-04-27T07:12:58.832Z,68.47
2023-04-27T07:14:01.094Z,68.39
2023-04-27T07:15:08.236Z,68.44
2023-04-27T07:16:12.226Z,68.28
2023-04-27T07:17:14.476Z,68.13
2023-04-27T07:18:16.467Z,68.15
2023-04-27T07:19:18.509Z,68.15
2023-04-27T07:20:21.169Z,68.06
2023-04-27T07:21:23.170Z,68.25
2023-04-27T07:22:25.310Z,68.32
2023-04-27T07:23:27.551Z,68.36
2023-04-27T07:24:29.836Z,67.79
2023-04-27T07:25:32.305Z,67.87
2023-04-27T07:26:34.888Z,67.95
2023-04-27T07:27:37.473Z,67.66
2023-04-27T07:28:40.128Z,67.78
2023-04-27T07:29:42.040Z,67.70
2023-04-27T07:30:44.641Z,67.67
2023-04-27T07:31:46.859Z,67.34
2023-04-27T07:32:49.201Z,67.32
2023-04-27T07:33:51.338Z,67.37
2023-04-27T07:34:58.196Z,67.49
2023-04-27T07:36:01.311Z,67.35
2023-04-27T07:37:03.735Z,67.47
2023-04-27T07:38:05.911Z,67.44
2023-04-27T07:39:08.059Z,67.10
2023-04-27T07:40:14.175Z,67.10
2023-04-27T07:41:16.363Z,67.27
2023-04-27T07:42:20.362Z,66.99
2023-04-27T07:43:22.684Z,66.79
2023-04-27T07:44:24.816Z,66.88
2023-04-27T07:45:27.798Z,66.82
2023-04-27T07:46:30.462Z,66.71
2023-04-27T07:47:32.615Z,66.67
2023-04-27T07:48:34.554Z,66.49
2023-04-27T07:49:37.070Z,66.47
2023-04-27T07:50:39.529Z,66.60
2023-04-27T07:51:41.686Z,67.09
2023-04-27T07:52:43.786Z,67.00
2023-04-27T07:53:47.750Z,66.27
2023-04-27T07:54:49.877Z,66.51
2023-04-27T07:55:53.012Z,65.97
2023-04-27T07:56:55.683Z,66.00
2023-04-27T07:57:57.820Z,65.68
2023-04-27T07:59:00.089Z,65.43
2023-04-27T08:00:05.021Z,65.60
2023-04-27T08:01:08.956Z,65.74
2023-04-27T08:02:18.383Z,65.60
2023-04-27T08:03:15.394Z,65.38
2023-04-27T08:04:18.940Z,65.58
2023-04-27T08:05:22.068Z,65.82
2023-04-27T08:06:25.810Z,65.97
2023-04-27T08:07:29.248Z,66.04
2023-04-27T08:08:31.740Z,66.01
2023-04-27T08:09:34.207Z,65.92
2023-04-27T08:10:36.634Z,66.13
2023-04-27T08:11:38.734Z,66.31
2023-04-27T08:12:40.885Z,66.17
2023-04-27T08:13:43.059Z,66.29
2023-04-27T08:14:46.130Z,66.53
2023-04-27T08:18:25.163Z,66.95
2023-04-27T08:19:27.523Z,66.97
2023-04-27T08:20:30.825Z,67.01
2023-04-27T08:21:32.918Z,67.10
2023-04-27T08:22:34.900Z,67.22
2023-04-27T08:23:37.080Z,67.32
2023-04-27T08:24:39.242Z,67.36
2023-04-27T08:25:41.490Z,67.28
2023-04-27T08:26:44.899Z,67.30
2023-04-27T08:27:47.037Z,67.43
2023-04-27T08:28:49.587Z,67.62
2023-04-27T08:29:51.782Z,67.54
2023-04-27T08:30:55.302Z,67.38
2023-04-27T08:31:59.440Z,67.44
2023-04-27T08:33:01.914Z,67.56
2023-04-27T08:34:04.453Z,67.53
2023-04-27T08:35:07.768Z,67.69
2023-04-27T08:36:10.462Z,67.92
2023-04-27T08:37:12.637Z,67.79
2023-04-27T08:38:14.728Z,67.88
2023-04-27T08:39:16.912Z,67.92
2023-04-27T08:40:20.682Z,67.99
2023-04-27T08:41:24.850Z,68.04
2023-04-27T08:42:27.037Z,68.15
2023-04-27T08:43:35.846Z,68.42
2023-04-27T08:44:41.681Z,68.36
2023-04-27T08:45:48.363Z,68.39
2023-04-27T08:46:51.120Z,68.42
2023-04-27T08:47:54.349Z,68.34
2023-04-27T08:48:56.864Z,68.53
2023-04-27T08:49:58.958Z,68.56
2023-04-27T08:51:01.390Z,68.56
2023-04-27T08:52:06.574Z,68.11
2023-04-27T08:54:27.246Z,68.38
2023-04-27T08:55:29.382Z,68.59
2023-04-27T08:56:32.010Z,68.74
2023-04-27T08:57:34.245Z,68.56
2023-04-27T08:58:37.273Z,68.62
2023-04-27T08:59:42.801Z,68.68
2023-04-27T09:00:45.473Z,68.55
2023-04-27T09:01:48.662Z,68.45
2023-04-27T09:02:51.711Z,68.44
2023-04-27T09:04:00.741Z,68.39
2023-04-27T09:05:07.377Z,68.20
2023-04-27T09:06:10.497Z,68.05
2023-04-27T09:07:17.285Z,68.32
2023-04-27T09:08:19.621Z,68.44
2023-04-27T09:10:43.231Z,68.36
2023-04-27T09:11:45.334Z,68.39
2023-04-27T09:12:55.538Z,68.24
2023-04-27T09:13:59.015Z,68.27
2023-04-27T09:15:02.338Z,68.21
2023-04-27T09:16:05.072Z,68.27
2023-04-27T09:17:07.425Z,68.34
2023-04-27T09:19:25.748Z,68.36
2023-04-27T09:20:28.116Z,68.12
2023-04-27T09:21:30.369Z,68.16
2023-04-27T09:22:36.082Z,68.21
2023-04-27T09:23:39.660Z,68.25
2023-04-27T09:24:52.681Z,68.06
2023-04-27T09:25:59.213Z,68.05
2023-04-27T09:27:01.554Z,68.22
2023-04-27T09:28:04.927Z,68.31
2023-04-27T09:29:07.195Z,68.21
2023-04-27T09:30:17.905Z,68.03
2023-04-27T09:31:20.059Z,68.06
2023-04-27T09:32:22.228Z,67.91
2023-04-27T09:33:25.433Z,67.93
2023-04-27T09:34:38.766Z,68.11
2023-04-27T09:35:41.030Z,68.02
2023-04-27T09:36:43.861Z,67.86
2023-04-27T09:37:46.030Z,67.67
2023-04-27T09:38:48.974Z,67.67
2023-04-27T09:39:51.090Z,67.62
2023-04-27T09:40:55.417Z,67.18
2023-04-27T09:41:57.769Z,67.21
2023-04-27T09:43:01.026Z,67.37
2023-04-27T09:44:03.581Z,67.39
2023-04-27T09:45:08.508Z,67.33
2023-04-27T09:46:13.820Z,67.11
2023-04-27T09:47:16.525Z,66.82
2023-04-27T09:48:18.675Z,66.84
2023-04-27T09:49:20.838Z,66.92
2023-04-27T09:50:23.521Z,66.92
2023-04-27T09:51:25.818Z,67.13
2023-04-27T09:52:28.192Z,67.24
2023-04-27T09:53:40.016Z,67.58
2023-04-27T09:54:42.533Z,67.79
2023-04-27T09:55:51.686Z,67.87
2023-04-27T09:57:06.643Z,67.96
2023-04-27T09:58:16.064Z,68.08
2023-04-27T09:59:38.561Z,68.28
2023-04-27T10:00:58.581Z,68.48
2023-04-27T10:02:07.365Z,68.49
2023-04-27T10:03:17.711Z,68.53
2023-04-27T10:04:50.085Z,68.49
2023-04-27T10:06:28.311Z,68.30
2023-04-27T10:07:31.233Z,68.42
2023-04-27T10:08:35.078Z,68.40
2023-04-27T10:10:52.618Z,68.79
2023-04-27T10:11:54.914Z,69.01
2023-04-27T10:12:59.741Z,69.08
2023-04-27T10:14:05.618Z,68.95
2023-04-27T10:15:16.564Z,68.91
2023-04-27T10:16:19.004Z,69.04
2023-04-27T10:17:35.355Z,68.88
2023-04-27T10:18:37.821Z,68.73
2023-04-27T10:19:40.270Z,68.72
2023-04-27T10:20:44.333Z,68.64
2023-04-27T10:22:00.802Z,68.66
2023-04-27T10:23:02.994Z,68.78
2023-04-27T10:24:10.174Z,68.81
2023-04-27T10:26:28.408Z,69.35
2023-04-27T10:27:34.356Z,69.18
2023-04-27T10:28:39.534Z,69.22
2023-04-27T10:29:44.344Z,69.23
2023-04-27T10:30:47.078Z,69.43
2023-04-27T10:31:49.360Z,69.43
2023-04-27T10:32:54.932Z,69.41
2023-04-27T10:34:08.088Z,69.54
2023-04-27T10:35:10.370Z,69.44
2023-04-27T10:36:15.947Z,69.23
2023-04-27T10:37:18.307Z,69.28
2023-04-27T10:38:21.946Z,69.36
2023-04-27T10:39:40.055Z,69.51
2023-04-27T10:40:33.361Z,69.49
2023-04-27T10:41:35.695Z,69.48
2023-04-27T10:42:37.847Z,69.42
2023-04-27T10:43:41.356Z,69.50
2023-04-27T10:44:47.208Z,69.51
2023-04-27T10:45:49.374Z,69.58
2023-04-27T10:46:59.030Z,69.67
2023-04-27T10:48:01.272Z,69.76
2023-04-27T10:49:04.923Z,69.73
2023-04-27T10:50:09.942Z,69.65
2023-04-27T10:51:16.700Z,69.64
2023-04-27T10:52:18.993Z,69.56
2023-04-27T10:53:21.135Z,69.64
2023-04-27T10:54:29.527Z,69.78
2023-04-27T10:55:32.454Z,69.77
2023-04-27T10:56:34.628Z,69.89
2023-04-27T10:57:45.534Z,69.92
2023-04-27T10:58:49.535Z,69.96
2023-04-27T10:59:53.604Z,69.81
2023-04-27T11:00:56.584Z,69.32
2023-04-27T11:01:58.983Z,69.42
2023-04-27T11:03:20.972Z,69.42
2023-04-27T11:04:23.253Z,69.42
2023-04-27T11:05:27.086Z,69.09
2023-04-27T11:06:30.876Z,69.30
2023-04-27T11:07:36.069Z,69.50
2023-04-27T11:08:43.441Z,69.39
2023-04-27T11:09:45.675Z,69.43
2023-04-27T11:10:49.732Z,69.45
2023-04-27T11:11:52.207Z,69.36
2023-04-27T11:12:54.418Z,69.19
2023-04-27T11:13:57.914Z,69.23
2023-04-27T11:14:59.842Z,69.34
2023-04-27T11:16:05.419Z,69.26
2023-04-27T11:17:07.643Z,69.20
2023-04-27T11:18:09.897Z,69.19
2023-04-27T11:19:12.109Z,69.11
2023-04-27T11:20:16.562Z,68.86
2023-04-27T11:21:18.766Z,68.85
2023-04-27T11:22:20.869Z,68.86
2023-04-27T11:23:28.544Z,68.84
2023-04-27T11:24:30.797Z,68.85
2023-04-27T11:25:32.778Z,68.79
2023-04-27T11:26:36.259Z,68.71
2023-04-27T11:27:40.025Z,68.69
2023-04-27T11:28:43.205Z,68.86
2023-04-27T11:29:45.421Z,68.94
2023-04-27T11:30:58.371Z,68.65
2023-04-27T11:32:01.505Z,68.72
2023-04-27T11:33:07.513Z,68.97
2023-04-27T11:34:14.058Z,69.16
2023-04-27T11:35:17.124Z,68.84
2023-04-27T11:36:22.205Z,68.63
2023-04-27T11:37:26.743Z,68.93
2023-04-27T11:38:35.249Z,68.97
2023-04-27T11:39:38.582Z,68.94
2023-04-27T11:40:41.239Z,68.63
2023-04-27T11:41:43.493Z,68.68
2023-04-27T11:42:45.517Z,68.57
2023-04-27T11:43:47.779Z,68.51
2023-04-27T11:45:02.150Z,68.56
2023-04-27T11:46:04.642Z,68.56
2023-04-27T11:47:07.014Z,68.00
2023-04-27T11:48:14.443Z,67.96
2023-04-27T11:49:16.669Z,67.98
2023-04-27T11:50:21.886Z,68.04
2023-04-27T11:51:24.287Z,67.96
2023-04-27T11:52:34.798Z,67.95
2023-04-27T11:53:39.043Z,67.53
2023-04-27T11:54:51.189Z,67.57
2023-04-27T12:00:08.626Z,67.19
2023-04-27T12:01:12.665Z,67.28
2023-04-27T12:02:15.794Z,67.43
2023-04-27T12:03:18.105Z,67.58
2023-04-27T12:04:21.051Z,67.48
2023-04-27T12:05:23.900Z,67.34
2023-04-27T12:06:32.630Z,67.33
2023-04-27T12:07:31.552Z,67.37
2023-04-27T12:08:33.570Z,67.45
2023-04-27T12:09:35.530Z,67.44
2023-04-27T12:10:38.250Z,67.37
2023-04-27T12:11:41.105Z,67.36
2023-04-27T12:12:43.554Z,67.45
2023-04-27T12:13:45.695Z,67.33
2023-04-27T12:14:49.109Z,67.37
2023-04-27T12:15:51.329Z,67.49
2023-04-27T12:16:54.166Z,67.40
2023-04-27T12:17:56.898Z,67.39
2023-04-27T12:18:59.113Z,66.90
2023-04-27T12:20:01.260Z,66.99
2023-04-27T12:21:03.814Z,67.15
2023-04-27T12:22:06.666Z,66.99
2023-04-27T12:23:08.917Z,66.93
2023-04-27T12:24:11.102Z,66.95
2023-04-27T12:25:13.680Z,66.84
2023-04-27T12:26:16.163Z,66.58
2023-04-27T12:27:18.216Z,66.75
2023-04-27T12:28:20.161Z,66.87
2023-04-27T12:29:22.356Z,66.67
2023-04-27T12:30:24.954Z,66.70
2023-04-27T12:31:27.954Z,66.55
2023-04-27T12:32:31.075Z,66.39
2023-04-27T12:33:33.548Z,66.28
2023-04-27T12:34:35.788Z,66.47
2023-04-27T12:35:38.007Z,66.51
2023-04-27T12:36:40.512Z,66.67
2023-04-27T12:37:43.870Z,66.80
2023-04-27T12:38:46.046Z,66.76
2023-04-27T12:39:48.058Z,66.79
2023-04-27T12:40:50.775Z,66.86
2023-04-27T12:41:53.406Z,66.83
2023-04-27T12:42:55.571Z,66.73
2023-04-27T12:43:57.932Z,66.83
2023-04-27T12:45:00.044Z,66.86
2023-04-27T12:46:03.625Z,66.77
2023-04-27T12:47:06.145Z,66.62
2023-04-27T12:48:08.318Z,66.38
2023-04-27T12:49:10.645Z,66.43
2023-04-27T12:50:13.775Z,66.38
2023-04-27T12:51:15.866Z,66.42
2023-04-27T12:52:17.832Z,66.51
2023-04-27T12:53:19.914Z,66.51
2023-04-27T12:54:22.112Z,66.31
2023-04-27T12:55:33.040Z,66.11
2023-04-27T12:56:28.820Z,66.32
2023-04-27T12:57:30.882Z,66.44
2023-04-27T12:58:32.920Z,66.58
2023-04-27T12:59:35.675Z,66.62
2023-04-27T13:00:38.174Z,66.75
2023-04-27T13:01:40.514Z,66.79
2023-04-27T13:02:43.427Z,66.86
2023-04-27T13:03:47.330Z,67.00
2023-04-27T13:04:49.597Z,66.50
2023-04-27T13:05:52.191Z,66.55
2023-04-27T13:06:56.172Z,66.71
2023-04-27T13:07:58.515Z,66.71
2023-04-27T13:09:03.540Z,66.79
2023-04-27T13:10:11.290Z,66.94
2023-04-27T13:11:13.889Z,67.03
2023-04-27T13:12:15.888Z,67.19
2023-04-27T13:13:18.062Z,67.23
2023-04-27T13:14:24.772Z,67.27
2023-04-27T13:15:26.993Z,67.27
2023-04-27T13:16:29.534Z,67.18
2023-04-27T13:17:31.770Z,67.00
2023-04-27T13:18:35.230Z,67.04
2023-04-27T13:19:38.026Z,67.01
2023-04-27T13:20:41.763Z,67.02
2023-04-27T13:21:44.034Z,67.21
2023-04-27T13:25:22.756Z,67.24
2023-04-27T13:26:25.364Z,67.04
2023-04-27T13:27:27.408Z,67.23
2023-04-27T13:28:29.635Z,67.38
2023-04-27T13:29:31.781Z,67.29
2023-04-27T13:30:34.406Z,67.32
2023-04-27T13:31:36.640Z,67.40
2023-04-27T13:32:39.157Z,67.52
2023-04-27T13:33:42.781Z,67.89
2023-04-27T13:34:45.384Z,67.86
2023-04-27T13:35:47.606Z,68.00
2023-04-27T13:36:50.290Z,68.05
2023-04-27T13:37:52.718Z,68.06
2023-04-27T13:38:54.822Z,68.17
2023-04-27T13:39:56.939Z,68.33
2023-04-27T13:40:59.556Z,68.35
2023-04-27T13:42:03.436Z,68.37
2023-04-27T13:43:05.697Z,68.47
2023-04-27T13:44:07.949Z,68.64
2023-04-27T13:45:13.050Z,68.80
2023-04-27T13:46:15.467Z,68.81
2023-04-27T13:47:18.216Z,68.90
2023-04-27T13:48:21.214Z,68.98
2023-04-27T13:49:23.488Z,69.00
2023-04-27T13:50:26.004Z,69.04
2023-04-27T13:51:28.367Z,69.19
2023-04-27T13:52:30.685Z,69.17
2023-04-27T13:53:32.787Z,69.20
2023-04-27T13:54:35.006Z,69.30
2023-04-27T13:55:37.233Z,69.13
2023-04-27T13:56:40.505Z,69.07
2023-04-27T13:57:42.623Z,69.16
2023-04-27T13:58:44.736Z,69.15
2023-04-27T13:59:47.080Z,69.01
2023-04-27T14:00:50.749Z,68.84
2023-04-27T14:01:53.293Z,68.73
2023-04-27T14:02:55.922Z,68.72
2023-04-27T14:03:58.613Z,68.78
2023-04-27T14:05:01.651Z,68.58
2023-04-27T14:06:07.847Z,68.54
2023-04-27T14:07:10.148Z,68.44
2023-04-27T14:08:12.432Z,68.26
2023-04-27T14:09:15.294Z,68.18
2023-04-27T14:10:19.654Z,68.15
2023-04-27T14:11:22.001Z,68.13
2023-04-27T14:12:24.081Z,68.00
2023-04-27T14:13:26.444Z,67.88
2023-04-27T14:14:28.444Z,67.66
2023-04-27T14:15:30.742Z,67.49
2023-04-27T14:16:33.396Z,67.54
2023-04-27T14:17:35.785Z,67.33
2023-04-27T14:18:38.133Z,67.17
2023-04-27T14:19:40.619Z,67.35
2023-04-27T14:20:45.806Z,67.42
2023-04-27T14:21:49.000Z,67.47
2023-04-27T14:22:51.158Z,67.31
2023-04-27T14:23:53.407Z,67.09
2023-04-27T14:24:55.631Z,67.23
2023-04-27T14:25:57.744Z,67.19
2023-04-27T14:27:00.175Z,66.67
2023-04-27T14:28:04.370Z,66.67
2023-04-27T14:29:06.589Z,66.55
2023-04-27T14:30:12.428Z,66.60
2023-04-27T14:31:14.627Z,66.41
2023-04-27T14:32:16.850Z,66.61
2023-04-27T14:33:20.783Z,66.64
2023-04-27T14:34:22.975Z,66.25